Time;durP1;ratioP1;P1;durP2;ratioP2;P2;SDS_P1;SDS_P2;PMS_P1;PMS_P2;Temp;Humidity;BMP_temperature;BMP_pressure;BME280_temperature;BME280_humidity;BME280_pressure;Samples;Min_cycle;Max_cycle;Signal;HPM_P1;HPM_P2
2023/10/20 04:02:18;;;;;;;3.03;2.73;;;15.90;88.60;;;;;;5254459;23;20588;-69
2023/10/20 04:04:45;;;;;;;3.30;3.00;;;15.70;88.50;;;;;;4994241;28;20441;-69
2023/10/20 04:07:11;;;;;;;3.83;3.53;;;15.60;89.10;;;;;;4994206;28;20829;-69
2023/10/20 04:09:38;;;;;;;3.63;3.10;;;15.60;88.90;;;;;;4993856;28;20934;-69
2023/10/20 04:12:07;;;;;;;3.43;3.13;;;15.70;88.90;;;;;;5007840;28;20980;-70
2023/10/20 04:14:34;;;;;;;4.90;3.70;;;15.70;88.90;;;;;;5014310;28;20574;-69
2023/10/20 04:17:03;;;;;;;3.63;3.33;;;15.80;88.70;;;;;;5013506;28;20441;-69
2023/10/20 04:19:31;;;;;;;3.70;3.40;;;15.80;88.60;;;;;;5013680;28;20448;-69
2023/10/20 04:21:58;;;;;;;3.33;3.03;;;15.80;88.60;;;;;;5013433;28;20468;-69
2023/10/20 04:24:24;;;;;;;4.33;3.30;;;15.80;88.50;;;;;;5013640;28;20451;-69
2023/10/20 04:26:52;;;;;;;3.83;3.10;;;15.90;88.40;;;;;;5013562;28;20444;-69
2023/10/20 04:29:34;;;;;;;5.00;3.83;;;15.80;88.30;;;;;;5013503;28;20448;-69
2023/10/20 04:49:00;;;;;;;3.30;3.00;;;15.80;88.20;;;;;;5012093;28;20440;-71
2023/10/20 04:51:27;;;;;;;4.17;3.53;;;15.80;88.30;;;;;;5012831;28;20471;-71
2023/10/20 04:53:54;;;;;;;3.93;3.53;;;15.70;88.00;;;;;;5013278;28;20518;-71
2023/10/20 04:56:37;;;;;;;3.87;3.57;;;15.70;88.20;;;;;;5013231;28;20444;-72
2023/10/20 04:59:09;;;;;;;3.70;3.40;;;15.50;88.00;;;;;;5013709;28;20498;-71
2023/10/20 05:01:41;;;;;;;3.83;3.50;;;15.30;88.40;;;;;;5012741;28;21011;-71
2023/10/20 05:04:14;;;;;;;3.77;3.30;;;15.30;89.10;;;;;;5013264;28;20461;-73
2023/10/20 05:06:44;;;;;;;3.97;3.57;;;15.30;88.90;;;;;;5016539;28;20479;-71
2023/10/20 05:09:14;;;;;;;4.67;3.47;;;15.30;88.90;;;;;;5017101;28;20455;-71
2023/10/20 05:11:41;;;;;;;4.63;4.27;;;15.40;88.70;;;;;;5016966;28;20546;-72
2023/10/20 05:14:08;;;;;;;4.67;4.27;;;15.30;88.30;;;;;;5016835;28;20494;-72
2023/10/20 05:16:34;;;;;;;5.20;4.70;;;15.10;88.70;;;;;;5016575;28;20793;-71
2023/10/20 05:19:03;;;;;;;6.37;5.80;;;14.90;89.50;;;;;;5016838;28;20451;-71
2023/10/20 05:21:33;;;;;;;5.10;4.63;;;14.80;90.00;;;;;;5016683;28;20586;-72
2023/10/20 05:24:03;;;;;;;6.70;6.20;;;14.90;89.70;;;;;;5016778;28;20452;-71
2023/10/20 05:26:30;;;;;;;5.20;4.77;;;14.90;90.20;;;;;;5016443;28;20910;-72
2023/10/20 05:28:57;;;;;;;4.20;3.90;;;15.10;89.90;;;;;;5016396;28;20933;-72
2023/10/20 05:31:25;;;;;;;4.87;4.40;;;15.10;89.60;;;;;;5016454;28;20471;-72
2023/10/20 05:33:52;;;;;;;5.27;4.20;;;15.00;89.50;;;;;;5016460;28;20538;-71
2023/10/20 05:36:19;;;;;;;4.40;4.10;;;14.90;89.60;;;;;;5016480;28;20436;-71
2023/10/20 05:38:46;;;;;;;5.60;5.10;;;14.80;90.20;;;;;;5016471;28;20522;-71
2023/10/20 05:41:14;;;;;;;5.57;5.07;;;14.60;90.60;;;;;;5016348;28;20471;-71
2023/10/20 05:43:41;;;;;;;5.50;5.00;;;14.50;91.50;;;;;;5016354;28;20440;-71
2023/10/20 05:46:14;;;;;;;6.00;5.40;;;14.30;91.60;;;;;;5016311;28;20479;-71
2023/10/20 05:48:41;;;;;;;4.90;4.40;;;14.30;91.80;;;;;;5016350;28;20459;-71
2023/10/20 05:51:07;;;;;;;4.80;4.37;;;14.20;92.00;;;;;;5015988;28;20456;-71
2023/10/20 05:53:34;;;;;;;4.30;3.90;;;14.10;92.30;;;;;;5015902;28;21023;-71
2023/10/20 05:56:01;;;;;;;3.90;3.60;;;14.00;92.80;;;;;;5016162;28;20864;-72
2023/10/20 05:58:30;;;;;;;4.30;4.00;;;14.10;93.10;;;;;;5016169;28;20448;-72
2023/10/20 06:01:03;;;;;;;4.47;4.07;;;14.20;92.40;;;;;;5015866;28;20571;-72
2023/10/20 06:03:30;;;;;;;5.23;4.60;;;14.30;92.10;;;;;;5016062;28;20863;-71
2023/10/20 06:06:00;;;;;;;4.80;3.90;;;14.20;92.00;;;;;;5016042;28;20534;-71
2023/10/20 06:08:28;;;;;;;4.07;3.77;;;14.30;92.00;;;;;;5015927;28;20471;-71
2023/10/20 06:10:54;;;;;;;3.87;3.47;;;14.40;91.70;;;;;;5015903;28;20468;-71
2023/10/20 06:13:21;;;;;;;3.90;3.60;;;14.40;91.10;;;;;;5015467;28;21003;-71
2023/10/20 06:15:49;;;;;;;4.30;3.93;;;14.40;91.10;;;;;;5015267;28;20953;-71
2023/10/20 06:18:17;;;;;;;4.40;4.10;;;14.40;91.00;;;;;;5015806;28;20449;-72
2023/10/20 06:20:44;;;;;;;3.93;3.63;;;14.30;91.10;;;;;;5016035;28;20499;-72
2023/10/20 06:23:11;;;;;;;4.07;3.77;;;14.30;91.30;;;;;;5015668;28;20441;-71
2023/10/20 06:25:37;;;;;;;3.67;3.37;;;14.40;91.10;;;;;;5015635;28;20440;-71
2023/10/20 06:28:05;;;;;;;3.77;3.47;;;14.40;91.00;;;;;;5015703;28;20451;-68
2023/10/20 06:30:33;;;;;;;3.30;3.10;;;14.30;91.00;;;;;;5015729;28;20474;-72
2023/10/20 06:33:16;;;;;;;5.07;4.60;;;14.30;91.10;;;;;;5015759;28;20488;-71
2023/10/20 06:35:50;;;;;;;4.90;4.50;;;14.30;91.00;;;;;;5016688;28;20436;-72
2023/10/20 06:38:19;;;;;;;4.63;4.03;;;14.40;91.00;;;;;;5015133;28;20959;-73
2023/10/20 06:40:47;;;;;;;4.60;4.23;;;14.40;90.40;;;;;;5015221;28;20844;-73
2023/10/20 06:43:13;;;;;;;4.60;4.17;;;14.20;90.60;;;;;;5015317;28;20452;-72
2023/10/20 06:45:40;;;;;;;4.27;3.87;;;14.10;91.00;;;;;;5015152;28;20823;-73
2023/10/20 06:48:09;;;;;;;4.00;3.70;;;14.10;91.10;;;;;;5015143;28;20451;-73
2023/10/20 06:50:37;;;;;;;4.50;4.07;;;14.00;91.30;;;;;;5015032;28;20449;-73
2023/10/20 06:53:05;;;;;;;3.90;3.57;;;14.10;91.50;;;;;;5014789;28;20971;-73
2023/10/20 06:55:31;;;;;;;4.23;3.83;;;14.10;91.30;;;;;;5015075;28;20448;-72
2023/10/20 06:57:58;;;;;;;4.27;3.90;;;14.20;91.30;;;;;;5014961;28;20440;-73
2023/10/20 07:00:26;;;;;;;4.07;3.67;;;14.20;91.10;;;;;;5014976;28;20451;-72
2023/10/20 07:02:52;;;;;;;3.50;3.20;;;14.30;91.10;;;;;;5015049;28;20459;-73
2023/10/20 07:05:23;;;;;;;5.03;4.57;;;14.40;90.90;;;;;;5014911;28;20451;-73
2023/10/20 07:07:50;;;;;;;4.13;3.73;;;14.50;90.70;;;;;;5015219;28;20433;-72
2023/10/20 07:10:18;;;;;;;4.47;4.07;;;14.50;90.10;;;;;;5015630;28;20444;-71
2023/10/20 07:12:44;;;;;;;4.40;4.10;;;14.40;90.30;;;;;;5014712;28;21007;-73
2023/10/20 07:15:12;;;;;;;4.50;4.10;;;14.40;90.70;;;;;;5014898;28;20480;-73
2023/10/20 07:17:38;;;;;;;3.60;3.13;;;14.50;90.60;;;;;;5014849;28;20478;-72
2023/10/20 07:20:06;;;;;;;4.17;3.87;;;14.60;90.10;;;;;;5014930;28;20452;-73
2023/10/20 07:22:35;;;;;;;3.97;3.67;;;14.70;89.40;;;;;;5014812;28;20467;-74
2023/10/20 07:25:02;;;;;;;4.57;4.07;;;14.70;89.50;;;;;;5015112;28;20436;-77
2023/10/20 07:27:29;;;;;;;3.80;3.50;;;14.80;89.50;;;;;;5013855;28;20500;-74
2023/10/20 07:29:57;;;;;;;3.60;3.30;;;14.80;89.00;;;;;;5014010;28;20973;-73
2023/10/20 07:32:23;;;;;;;2.97;2.77;;;14.80;88.90;;;;;;5013944;28;20981;-73
2023/10/20 07:34:50;;;;;;;4.90;4.50;;;14.80;88.40;;;;;;5013854;28;21051;-73
2023/10/20 07:37:17;;;;;;;4.93;4.47;;;14.90;88.80;;;;;;5013959;28;20451;-73
2023/10/20 07:39:46;;;;;;;4.33;3.93;;;15.00;88.10;;;;;;5013870;28;20976;-74
2023/10/20 07:42:12;;;;;;;4.57;4.07;;;15.00;88.20;;;;;;5014105;28;20495;-73
2023/10/20 07:44:40;;;;;;;4.83;4.43;;;15.10;87.50;;;;;;5014121;28;20455;-73
2023/10/20 07:47:06;;;;;;;4.20;3.90;;;15.00;87.90;;;;;;5014634;28;20444;-74
2023/10/20 07:49:33;;;;;;;3.93;3.53;;;15.20;88.20;;;;;;5014520;28;20448;-74
2023/10/20 07:52:00;;;;;;;3.90;3.60;;;15.40;87.90;;;;;;5014494;28;20519;-74
2023/10/20 07:54:27;;;;;;;4.17;3.87;;;15.40;87.00;;;;;;5014152;28;20480;-73
2023/10/20 07:56:55;;;;;;;4.33;3.93;;;15.40;87.00;;;;;;5013950;28;20824;-74
2023/10/20 07:59:22;;;;;;;4.13;3.83;;;15.50;87.00;;;;;;5014406;28;20456;-73
2023/10/20 08:01:48;;;;;;;5.10;3.90;;;15.50;86.20;;;;;;5013957;28;20472;-73
2023/10/20 08:04:16;;;;;;;4.10;3.70;;;15.60;86.30;;;;;;5013944;28;20444;-73
2023/10/20 08:06:42;;;;;;;3.67;3.37;;;15.60;85.30;;;;;;5014073;28;20448;-74
2023/10/20 08:09:11;;;;;;;4.23;3.87;;;15.70;86.20;;;;;;5014409;28;20447;-73
2023/10/20 08:11:39;;;;;;;4.60;4.20;;;15.70;86.00;;;;;;5013787;28;20559;-73
2023/10/20 08:14:07;;;;;;;4.43;4.03;;;15.60;85.10;;;;;;5013698;28;20491;-73
2023/10/20 08:16:34;;;;;;;4.77;4.37;;;15.70;85.90;;;;;;5013775;28;20812;-74
2023/10/20 08:19:00;;;;;;;4.17;3.77;;;15.80;85.30;;;;;;5013455;28;20451;-73
2023/10/20 08:21:29;;;;;;;4.30;3.90;;;15.80;84.80;;;;;;5013761;28;20562;-74
2023/10/20 08:23:57;;;;;;;4.70;3.90;;;15.90;85.40;;;;;;5013575;28;20937;-74
2023/10/20 08:26:24;;;;;;;4.17;3.87;;;16.00;85.20;;;;;;5013953;28;20455;-74
2023/10/20 08:28:51;;;;;;;4.43;4.07;;;16.20;85.40;;;;;;5013854;28;20451;-74
2023/10/20 08:31:21;;;;;;;3.83;3.53;;;16.20;85.80;;;;;;5013850;28;20469;-74
2023/10/20 08:33:51;;;;;;;4.23;3.93;;;16.20;84.40;;;;;;5014931;28;20535;-74
2023/10/20 08:36:20;;;;;;;3.83;3.53;;;16.30;84.60;;;;;;5013940;28;20475;-74
2023/10/20 08:38:49;;;;;;;3.97;3.67;;;16.40;85.10;;;;;;5014124;28;20525;-74
2023/10/20 08:41:18;;;;;;;4.03;3.73;;;16.40;84.60;;;;;;5018154;28;20475;-74
2023/10/20 08:43:45;;;;;;;3.90;3.60;;;16.40;84.60;;;;;;5018108;28;20448;-74
2023/10/20 08:46:14;;;;;;;4.13;3.47;;;16.30;86.10;;;;;;5018285;28;20451;-74
2023/10/20 08:48:43;;;;;;;4.40;4.10;;;16.40;86.50;;;;;;5018087;28;20479;-74
2023/10/20 08:51:12;;;;;;;4.80;3.50;;;16.50;86.10;;;;;;5017937;28;20475;-74
2023/10/20 08:53:38;;;;;;;3.67;3.37;;;16.50;85.70;;;;;;5017834;28;20946;-74
2023/10/20 08:56:07;;;;;;;4.43;3.87;;;16.50;85.80;;;;;;5017710;28;20579;-74
2023/10/20 08:58:35;;;;;;;3.47;3.20;;;16.20;85.80;;;;;;5017980;28;20482;-74
2023/10/20 09:01:02;;;;;;;4.03;3.73;;;16.00;86.60;;;;;;5017759;28;20523;-74
2023/10/20 09:03:39;;;;;;;3.80;3.50;;;16.00;87.20;;;;;;5017798;28;20889;-74
2023/10/20 09:06:09;;;;;;;3.43;3.13;;;16.10;87.70;;;;;;5017990;28;20852;-74
2023/10/20 09:08:37;;;;;;;4.03;3.63;;;16.30;87.70;;;;;;5018777;28;20777;-74
2023/10/20 09:11:08;;;;;;;3.90;3.50;;;16.40;86.50;;;;;;5017429;28;20504;-74
2023/10/20 09:13:37;;;;;;;4.27;3.97;;;16.30;85.70;;;;;;5017960;28;20483;-74
2023/10/20 09:16:07;;;;;;;4.43;4.03;;;16.40;86.40;;;;;;5017432;28;20571;-74
2023/10/20 09:18:42;;;;;;;3.97;3.67;;;16.40;86.40;;;;;;5017377;28;20484;-74
2023/10/20 09:21:10;;;;;;;3.03;2.83;;;16.60;86.30;;;;;;5017462;28;20486;-74
2023/10/20 09:23:39;;;;;;;3.50;3.20;;;16.40;85.90;;;;;;5017306;28;20451;-74
2023/10/20 09:26:05;;;;;;;3.10;2.80;;;16.50;85.60;;;;;;5017310;28;20926;-74
2023/10/20 09:28:32;;;;;;;3.97;3.57;;;16.40;86.30;;;;;;5017321;28;20440;-74
2023/10/20 09:31:00;;;;;;;3.50;3.20;;;16.30;86.30;;;;;;5017380;28;20507;-74
2023/10/20 09:33:27;;;;;;;3.50;3.20;;;16.30;86.70;;;;;;5017351;28;20884;-74
2023/10/20 09:35:54;;;;;;;3.30;2.90;;;16.30;86.40;;;;;;5017305;28;20483;-74
2023/10/20 09:38:26;;;;;;;3.17;2.87;;;16.50;86.60;;;;;;5017426;28;20452;-74
2023/10/20 09:41:04;;;;;;;3.03;2.80;;;16.60;86.70;;;;;;5017261;28;20496;-74
2023/10/20 09:43:35;;;;;;;4.30;3.17;;;16.70;86.00;;;;;;5017218;28;20463;-74
2023/10/20 09:46:10;;;;;;;2.87;2.57;;;16.80;86.60;;;;;;5017577;28;20471;-74
2023/10/20 09:48:40;;;;;;;2.70;2.50;;;16.70;86.00;;;;;;5016891;28;20439;-74
2023/10/20 09:51:08;;;;;;;3.73;3.43;;;16.60;87.00;;;;;;5016007;28;20846;-74
2023/10/20 09:53:37;;;;;;;3.00;2.77;;;16.70;87.60;;;;;;5022118;28;20456;-74
2023/10/20 09:56:05;;;;;;;3.20;3.00;;;16.90;86.90;;;;;;5023421;28;20488;-74
2023/10/20 09:58:34;;;;;;;2.83;2.50;;;16.90;86.80;;;;;;5020100;28;20448;-74
2023/10/20 10:01:02;;;;;;;3.40;3.10;;;16.90;86.10;;;;;;5016081;28;20578;-74
2023/10/20 10:03:34;;;;;;;3.30;2.77;;;16.80;86.50;;;;;;5016163;28;20428;-74
2023/10/20 10:06:01;;;;;;;3.23;2.57;;;17.00;86.90;;;;;;5016163;28;20489;-74
2023/10/20 10:08:29;;;;;;;2.40;2.20;;;17.10;86.50;;;;;;5016034;28;20440;-74
2023/10/20 10:10:57;;;;;;;2.10;1.90;;;17.00;85.90;;;;;;5015890;28;20507;-74
2023/10/20 10:13:34;;;;;;;2.40;2.20;;;17.10;86.20;;;;;;5035035;23;20531;-76
2023/10/20 10:16:13;;;;;;;1.70;1.60;;;17.10;86.60;;;;;;4996163;28;20559;-76
2023/10/20 10:18:46;;;;;;;1.87;1.53;;;17.10;85.70;;;;;;4995908;28;20871;-76
2023/10/20 10:21:25;;;;;;;2.43;1.90;;;17.10;85.50;;;;;;4996144;28;20459;-75
2023/10/20 10:24:14;;;;;;;4.13;1.57;;;17.00;87.10;;;;;;5002681;28;21013;-76
2023/10/20 10:26:54;;;;;;;2.00;1.60;;;17.10;86.40;;;;;;5015323;28;20949;-75
2023/10/20 10:29:41;;;;;;;2.47;1.60;;;17.20;87.00;;;;;;5015551;28;20437;-75
2023/10/20 10:32:11;;;;;;;2.40;1.90;;;17.20;86.80;;;;;;5015101;28;20498;-76
2023/10/20 10:34:42;;;;;;;1.50;1.30;;;17.30;86.00;;;;;;5015221;28;20476;-76
2023/10/20 10:37:09;;;;;;;1.80;1.40;;;17.40;86.30;;;;;;5015046;28;20934;-76
2023/10/20 10:39:36;;;;;;;2.00;1.40;;;17.50;86.60;;;;;;5015273;28;20514;-76
2023/10/20 10:42:05;;;;;;;1.47;0.97;;;17.40;86.20;;;;;;5015818;28;20528;-76
2023/10/20 10:44:34;;;;;;;1.40;1.10;;;17.30;86.20;;;;;;5014876;28;20965;-75
2023/10/20 10:47:00;;;;;;;1.50;1.20;;;17.30;86.10;;;;;;5015208;28;20476;-75
2023/10/20 10:49:27;;;;;;;1.80;1.37;;;17.20;86.10;;;;;;5015131;28;20447;-75
2023/10/20 10:51:55;;;;;;;1.40;1.00;;;17.20;86.20;;;;;;5015107;28;20440;-76
2023/10/20 10:54:23;;;;;;;1.20;0.80;;;17.30;86.60;;;;;;5014706;28;20486;-75
2023/10/20 10:56:50;;;;;;;1.67;1.00;;;17.30;84.80;;;;;;5014785;28;20444;-75
2023/10/20 10:59:19;;;;;;;1.33;0.90;;;17.30;85.90;;;;;;5014615;28;20444;-76
2023/10/20 11:01:47;;;;;;;1.20;0.70;;;17.30;84.50;;;;;;5014863;28;20449;-76
2023/10/20 11:04:14;;;;;;;1.40;0.80;;;17.30;83.00;;;;;;5013966;28;20487;-75
2023/10/20 11:06:43;;;;;;;1.47;0.80;;;17.20;83.60;;;;;;5014847;28;20445;-75
2023/10/20 11:09:10;;;;;;;1.70;0.90;;;17.30;83.80;;;;;;5014825;28;20448;-76
2023/10/20 11:11:42;;;;;;;1.50;0.87;;;17.20;84.80;;;;;;5014812;28;20876;-76
2023/10/20 11:14:10;;;;;;;1.53;0.93;;;17.20;86.00;;;;;;5014453;28;20479;-77
2023/10/20 11:16:39;;;;;;;1.30;0.83;;;17.20;85.70;;;;;;5014368;28;21085;-76
2023/10/20 11:19:06;;;;;;;1.70;1.03;;;17.10;84.90;;;;;;5014415;28;20966;-75
2023/10/20 11:21:51;;;;;;;1.10;0.60;;;17.10;84.90;;;;;;5014690;28;20444;-76
2023/10/20 11:24:26;;;;;;;1.60;0.70;;;17.10;83.90;;;;;;5014616;28;20487;-75
2023/10/20 11:26:57;;;;;;;1.30;0.70;;;17.20;84.30;;;;;;5014640;28;20473;-76
2023/10/20 11:29:28;;;;;;;1.10;0.60;;;17.10;83.90;;;;;;5014682;28;20472;-76
2023/10/20 11:31:57;;;;;;;1.50;0.70;;;17.00;84.00;;;;;;5014585;28;20436;-75
2023/10/20 11:34:25;;;;;;;1.20;0.67;;;17.10;84.60;;;;;;5014213;28;20856;-74
2023/10/20 11:36:52;;;;;;;1.20;0.67;;;17.30;84.50;;;;;;5014378;28;20487;-75
2023/10/20 11:39:21;;;;;;;1.20;0.70;;;17.20;84.00;;;;;;5014368;28;20535;-76
2023/10/20 11:41:48;;;;;;;1.10;0.60;;;17.10;83.30;;;;;;5014286;28;20444;-74
2023/10/20 11:44:15;;;;;;;1.20;0.70;;;17.00;83.80;;;;;;5014192;28;20469;-74
2023/10/20 11:46:43;;;;;;;1.10;0.60;;;17.00;83.60;;;;;;5014590;28;20447;-75
2023/10/20 11:49:11;;;;;;;1.40;0.60;;;17.10;84.70;;;;;;5014493;28;20506;-75
2023/10/20 11:51:38;;;;;;;1.20;0.70;;;17.20;84.00;;;;;;5014386;28;20475;-75
2023/10/20 11:54:05;;;;;;;1.20;0.70;;;17.30;83.10;;;;;;5014095;28;20466;-75
2023/10/20 11:56:32;;;;;;;1.40;0.60;;;17.30;84.10;;;;;;5014012;28;20534;-74
2023/10/20 11:58:59;;;;;;;1.47;0.60;;;17.40;82.90;;;;;;5014055;28;20448;-75
2023/10/20 12:01:25;;;;;;;1.20;0.60;;;17.60;83.00;;;;;;5014120;28;20479;-75
2023/10/20 12:03:52;;;;;;;1.20;0.60;;;17.60;82.00;;;;;;5014057;28;20499;-75
2023/10/20 12:06:20;;;;;;;1.10;0.60;;;17.60;82.60;;;;;;5013948;28;20436;-75
2023/10/20 12:08:47;;;;;;;1.20;0.60;;;17.50;82.90;;;;;;5013565;28;20444;-75
2023/10/20 12:11:14;;;;;;;1.20;0.53;;;17.40;82.70;;;;;;5013850;28;20447;-75
2023/10/20 12:13:46;;;;;;;1.10;0.60;;;17.30;83.00;;;;;;5013264;28;20511;-75
2023/10/20 12:16:13;;;;;;;1.10;0.57;;;17.40;83.50;;;;;;5013808;28;20475;-75
2023/10/20 12:18:41;;;;;;;1.23;0.63;;;17.50;82.90;;;;;;5013727;28;20447;-75
2023/10/20 12:21:08;;;;;;;1.20;0.60;;;17.60;82.30;;;;;;5013754;28;20444;-75
2023/10/20 12:23:36;;;;;;;1.30;0.60;;;17.80;82.50;;;;;;5013624;28;20472;-75
2023/10/20 12:26:03;;;;;;;1.20;0.60;;;17.90;81.30;;;;;;5013670;28;20527;-75
2023/10/20 12:28:31;;;;;;;1.30;0.60;;;18.20;80.80;;;;;;5013574;28;20448;-75
2023/10/20 12:30:58;;;;;;;1.20;0.60;;;18.40;80.30;;;;;;5013630;28;20522;-75
2023/10/20 12:33:24;;;;;;;1.30;0.60;;;18.80;80.30;;;;;;5013495;28;20513;-75
2023/10/20 12:35:53;;;;;;;1.10;0.60;;;19.20;78.00;;;;;;5013455;28;20522;-75
2023/10/20 12:38:21;;;;;;;1.40;0.60;;;19.40;77.70;;;;;;5013461;28;20448;-75
2023/10/20 12:40:49;;;;;;;1.20;0.60;;;19.50;76.40;;;;;;5013470;28;20444;-75
2023/10/20 12:43:16;;;;;;;1.10;0.50;;;19.50;76.00;;;;;;5013352;28;20478;-76
2023/10/20 12:45:43;;;;;;;2.03;0.60;;;19.30;74.80;;;;;;5013037;28;20934;-75
2023/10/20 12:48:10;;;;;;;1.10;0.60;;;19.00;77.00;;;;;;5013370;28;20874;-75
2023/10/20 12:50:38;;;;;;;1.10;0.60;;;18.80;76.60;;;;;;5013366;28;20448;-74
2023/10/20 12:53:07;;;;;;;2.23;0.67;;;18.80;76.40;;;;;;5013248;28;20448;-74
2023/10/20 12:55:34;;;;;;;1.10;0.60;;;18.90;75.90;;;;;;5013247;28;20565;-76
2023/10/20 12:58:03;;;;;;;1.13;0.60;;;19.10;75.50;;;;;;5013275;28;20444;-76
2023/10/20 13:00:30;;;;;;;2.60;0.60;;;19.20;74.40;;;;;;5013353;28;20478;-76
2023/10/20 13:02:56;;;;;;;1.87;0.60;;;19.10;74.40;;;;;;5013364;28;20448;-75
2023/10/20 13:05:23;;;;;;;1.10;0.60;;;19.40;75.10;;;;;;5012881;28;20982;-75
2023/10/20 13:07:50;;;;;;;1.30;0.67;;;19.60;72.90;;;;;;5013216;28;20444;-75
2023/10/20 13:10:17;;;;;;;1.10;0.60;;;19.80;71.90;;;;;;5013212;28;20884;-75
2023/10/20 13:12:44;;;;;;;1.17;0.60;;;19.70;71.70;;;;;;5013059;28;20835;-74
2023/10/20 13:15:13;;;;;;;1.20;0.60;;;19.90;71.70;;;;;;5012612;28;20488;-75
2023/10/20 13:17:40;;;;;;;1.20;0.60;;;20.60;70.80;;;;;;5013133;28;20451;-77
2023/10/20 13:20:08;;;;;;;1.10;0.50;;;21.40;66.80;;;;;;5013176;28;20444;-76
2023/10/20 13:22:35;;;;;;;1.10;0.53;;;21.10;67.50;;;;;;5012811;28;20452;-75
2023/10/20 13:25:02;;;;;;;1.10;0.50;;;20.60;68.80;;;;;;5012743;28;20475;-75
2023/10/20 13:27:29;;;;;;;1.30;0.60;;;20.40;69.80;;;;;;5016000;28;20447;-75
2023/10/20 13:29:57;;;;;;;1.10;0.50;;;20.00;69.90;;;;;;5016858;28;20892;-75
2023/10/20 13:32:25;;;;;;;1.30;0.60;;;19.40;70.50;;;;;;5016409;28;20891;-75
2023/10/20 13:34:51;;;;;;;1.10;0.60;;;19.10;73.00;;;;;;5016579;28;20472;-75
2023/10/20 13:37:18;;;;;;;1.40;0.60;;;18.70;72.40;;;;;;5016537;28;20491;-75
2023/10/20 13:39:45;;;;;;;1.10;0.60;;;18.30;73.60;;;;;;5016524;28;20447;-75
2023/10/20 13:42:11;;;;;;;1.30;0.60;;;18.10;75.60;;;;;;5016547;28;20459;-75
2023/10/20 13:44:38;;;;;;;1.17;0.60;;;18.10;75.10;;;;;;5016384;28;20467;-75
2023/10/20 13:47:05;;;;;;;1.10;0.60;;;17.90;74.20;;;;;;5016426;28;20789;-76
2023/10/20 13:49:33;;;;;;;1.83;0.70;;;17.80;73.70;;;;;;5016359;28;20476;-75
2023/10/20 13:52:00;;;;;;;1.33;0.70;;;17.70;75.10;;;;;;5016428;28;20888;-75
2023/10/20 13:54:27;;;;;;;1.10;0.50;;;17.70;75.00;;;;;;5016250;28;20468;-75
2023/10/20 13:56:54;;;;;;;1.20;0.60;;;17.80;75.00;;;;;;5016124;28;20567;-75
2023/10/20 13:59:21;;;;;;;1.10;0.60;;;17.70;74.30;;;;;;5015912;28;20444;-75
2023/10/20 14:01:48;;;;;;;1.20;0.60;;;17.50;74.40;;;;;;5016167;28;20447;-75
2023/10/20 14:04:14;;;;;;;1.10;0.60;;;17.40;75.80;;;;;;5016115;28;20526;-75
2023/10/20 14:06:42;;;;;;;1.20;0.60;;;17.20;75.60;;;;;;5015779;28;20937;-75
2023/10/20 14:09:09;;;;;;;1.50;0.60;;;17.20;75.70;;;;;;5016017;28;20444;-75
2023/10/20 14:11:36;;;;;;;1.20;0.60;;;17.20;76.20;;;;;;5015743;28;20448;-75
2023/10/20 14:14:02;;;;;;;1.20;0.60;;;17.20;76.40;;;;;;5015433;28;20479;-75
2023/10/20 14:16:29;;;;;;;1.30;0.60;;;17.00;76.70;;;;;;5015790;28;20491;-75
2023/10/20 14:18:55;;;;;;;1.87;0.60;;;17.00;78.70;;;;;;5015786;28;20456;-75
2023/10/20 14:21:23;;;;;;;2.80;0.70;;;17.00;78.20;;;;;;5015850;28;20792;-75
2023/10/20 14:23:51;;;;;;;1.20;0.60;;;17.00;79.20;;;;;;5024903;28;20496;-75
2023/10/20 14:26:17;;;;;;;1.20;0.60;;;17.00;78.70;;;;;;5033350;28;20448;-74
2023/10/20 14:28:44;;;;;;;1.20;0.60;;;16.90;79.80;;;;;;5015950;28;20451;-74
2023/10/20 14:31:11;;;;;;;1.10;0.50;;;16.70;79.90;;;;;;5015627;28;20448;-74
2023/10/20 14:33:38;;;;;;;1.10;0.60;;;16.40;80.20;;;;;;5015639;28;20464;-75
2023/10/20 14:36:05;;;;;;;3.83;0.80;;;16.40;80.60;;;;;;5015236;28;20534;-75
2023/10/20 14:38:32;;;;;;;1.20;0.60;;;16.20;82.00;;;;;;5015298;28;20452;-75
2023/10/20 14:41:01;;;;;;;1.50;0.70;;;16.10;81.90;;;;;;5015401;28;20451;-74
2023/10/20 14:43:28;;;;;;;1.30;0.60;;;16.00;82.70;;;;;;5015330;28;20887;-74
2023/10/20 14:45:56;;;;;;;1.10;0.60;;;16.00;82.70;;;;;;5014948;28;20942;-74
2023/10/20 14:48:22;;;;;;;1.20;0.60;;;15.80;82.70;;;;;;5015238;28;20491;-74
2023/10/20 14:50:50;;;;;;;1.30;0.60;;;15.90;83.10;;;;;;5015189;28;20452;-74
2023/10/20 14:53:17;;;;;;;1.20;0.60;;;15.70;84.30;;;;;;5014979;28;20496;-74
2023/10/20 14:55:45;;;;;;;1.40;0.60;;;15.80;83.20;;;;;;5015088;28;20861;-74
2023/10/20 14:58:13;;;;;;;1.20;0.60;;;15.80;83.30;;;;;;5015028;28;20444;-75
2023/10/20 15:00:44;;;;;;;1.20;0.60;;;15.70;83.60;;;;;;5015015;28;20472;-74
2023/10/20 15:03:11;;;;;;;1.20;0.60;;;15.60;83.80;;;;;;5014882;28;20424;-75
2023/10/20 15:05:39;;;;;;;1.27;0.70;;;15.60;84.90;;;;;;5014631;28;20929;-74
2023/10/20 15:08:06;;;;;;;1.10;0.60;;;15.70;85.00;;;;;;5014817;28;20531;-74
2023/10/20 15:10:32;;;;;;;1.30;0.70;;;15.80;84.00;;;;;;5014775;28;20448;-74
2023/10/20 15:12:59;;;;;;;1.10;0.53;;;15.80;84.40;;;;;;5015587;28;20448;-74
2023/10/20 15:15:31;;;;;;;1.30;0.60;;;15.90;84.40;;;;;;5014288;28;20543;-74
2023/10/20 15:17:58;;;;;;;1.17;0.60;;;16.00;84.30;;;;;;5014619;28;20503;-74
2023/10/20 15:20:25;;;;;;;1.40;0.60;;;16.10;84.30;;;;;;5015503;28;20482;-75
2023/10/20 15:22:52;;;;;;;1.20;0.60;;;16.10;84.20;;;;;;5014234;28;20937;-74
2023/10/20 15:25:19;;;;;;;1.13;0.60;;;16.00;83.60;;;;;;5014498;28;20555;-75
2023/10/20 15:27:46;;;;;;;1.70;0.60;;;16.10;84.10;;;;;;5014555;28;20487;-75
2023/10/20 15:30:14;;;;;;;1.10;0.60;;;16.10;84.10;;;;;;5014445;28;20444;-74
2023/10/20 15:32:44;;;;;;;1.30;0.70;;;16.10;84.00;;;;;;5014356;28;20440;-74
2023/10/20 15:35:11;;;;;;;1.20;0.60;;;16.00;83.90;;;;;;5014375;28;20810;-74
2023/10/20 15:37:38;;;;;;;1.33;0.63;;;16.00;84.40;;;;;;5014230;28;20476;-75
2023/10/20 15:40:10;;;;;;;1.50;0.77;;;16.10;84.50;;;;;;5014328;28;20451;-75
2023/10/20 15:42:37;;;;;;;1.30;0.63;;;16.30;84.20;;;;;;5014257;28;20435;-75
2023/10/20 15:45:05;;;;;;;1.40;0.67;;;16.40;83.60;;;;;;5014108;28;20464;-75
2023/10/20 15:47:32;;;;;;;1.20;0.60;;;16.40;82.90;;;;;;5014155;28;20470;-75
2023/10/20 15:50:00;;;;;;;1.50;0.60;;;16.30;83.40;;;;;;5013581;28;20444;-74
2023/10/20 15:52:27;;;;;;;1.20;0.60;;;16.20;83.70;;;;;;5013981;28;20444;-74
2023/10/20 15:54:54;;;;;;;1.20;0.63;;;16.10;83.60;;;;;;5013642;28;21036;-74
2023/10/20 15:57:21;;;;;;;1.30;0.70;;;16.10;84.40;;;;;;5013682;28;20479;-74
2023/10/20 15:59:48;;;;;;;1.20;0.60;;;16.10;84.70;;;;;;5013910;28;20480;-75
2023/10/20 16:02:15;;;;;;;1.20;0.70;;;16.20;84.40;;;;;;5013915;28;20894;-74
2023/10/20 16:04:42;;;;;;;1.50;0.73;;;16.30;84.10;;;;;;5013808;28;20463;-75
2023/10/20 16:07:10;;;;;;;1.30;0.70;;;16.40;83.70;;;;;;5013836;28;20440;-75
2023/10/20 16:09:36;;;;;;;1.17;0.60;;;16.50;83.80;;;;;;5013749;28;20448;-74
2023/10/20 16:12:04;;;;;;;1.30;0.70;;;16.50;83.80;;;;;;5013774;28;20444;-74
2023/10/20 16:14:31;;;;;;;1.63;0.70;;;16.60;83.30;;;;;;5056973;23;20516;-73
2023/10/20 16:16:57;;;;;;;1.37;0.73;;;16.50;83.40;;;;;;4994823;28;20489;-73
2023/10/20 16:19:24;;;;;;;1.20;0.70;;;16.40;83.70;;;;;;4995252;28;20449;-74
2023/10/20 16:21:51;;;;;;;1.20;0.70;;;16.30;84.20;;;;;;4994536;28;20974;-73
2023/10/20 16:24:19;;;;;;;1.30;0.70;;;16.30;84.40;;;;;;5001942;28;20511;-73
2023/10/20 16:26:46;;;;;;;1.30;0.73;;;16.10;84.80;;;;;;5013799;28;20447;-73
2023/10/20 16:29:12;;;;;;;1.90;0.93;;;16.00;85.00;;;;;;5013941;28;20444;-73
2023/10/20 16:31:39;;;;;;;1.30;0.90;;;15.90;85.30;;;;;;5014207;28;20464;-73
2023/10/20 16:34:05;;;;;;;1.70;0.90;;;15.90;86.00;;;;;;5014153;28;20475;-73
2023/10/20 16:36:32;;;;;;;1.47;0.90;;;15.80;85.60;;;;;;5014205;28;20484;-73
2023/10/20 16:38:59;;;;;;;1.73;1.17;;;15.70;85.90;;;;;;5014112;28;20895;-73
2023/10/20 16:41:27;;;;;;;1.73;0.90;;;15.40;86.50;;;;;;5014476;28;20483;-74
2023/10/20 16:43:54;;;;;;;1.20;0.70;;;15.40;87.00;;;;;;5014518;28;20483;-73
2023/10/20 16:46:20;;;;;;;1.30;0.73;;;15.40;86.70;;;;;;5014467;28;20451;-73
2023/10/20 16:48:48;;;;;;;1.30;0.80;;;15.30;87.40;;;;;;5014107;28;20440;-73
2023/10/20 16:51:15;;;;;;;1.30;0.80;;;15.40;87.40;;;;;;5014716;28;20452;-73
2023/10/20 16:53:41;;;;;;;1.40;0.70;;;15.50;86.50;;;;;;5014544;28;20448;-73
2023/10/20 16:56:08;;;;;;;1.50;0.70;;;15.50;86.40;;;;;;5014724;28;20460;-73
2023/10/20 16:58:36;;;;;;;1.20;0.70;;;15.50;86.20;;;;;;5014839;28;20483;-73
2023/10/20 17:01:04;;;;;;;1.17;0.70;;;15.50;86.30;;;;;;5014909;28;20448;-73
2023/10/20 17:03:31;;;;;;;1.67;0.90;;;15.60;86.50;;;;;;5017074;28;20455;-73
2023/10/20 17:05:58;;;;;;;1.50;0.90;;;15.70;86.10;;;;;;5017201;28;20444;-73
2023/10/20 17:08:25;;;;;;;1.30;0.70;;;15.80;85.70;;;;;;5016819;28;20952;-73
2023/10/20 17:10:51;;;;;;;1.27;0.80;;;15.80;85.60;;;;;;5017112;28;20451;-73